Chippewa on the Lake, Ohio
Current Conditions -  °F | °C
As of 9:56 PM on Sunday 21 Dec 2014 (Local Time) from KBJJ Reporting Station
Clear Clear  
Wind Chill: 18°   Ceiling: Unl
Heat Index: 24°   Visibility: 7mi
Dew Point: 20°   Wind: 5mph
Humidity: 84%   Direction: 80°E
Pressure: 30.2"   Gusts: NA
Location:  41.0673°N, 81.9012°W
Report Text: KBJJ 220256Z AUTO 08004KT 7SM CLR M04/M07 A3020 RMK AO2 SLP242 60000 T10441067 55008 TSNO
Loading
Personal Weather Stations






























Interactive Weather Map New forecast layout! Learn more

10-Day Weather Forecast

Advertisements
Track Severe Weather on mobile